createdAt,value
2023-02-02T00:02:46.134Z,100430.75
2023-02-02T00:05:54.258Z,100433.44
2023-02-02T00:08:57.951Z,100438.03
2023-02-02T00:12:00.832Z,100439.19
2023-02-02T00:15:02.311Z,100448.34
2023-02-02T00:18:04.405Z,100443.91
2023-02-02T00:21:05.901Z,100436.94
2023-02-02T00:24:09.423Z,100438.81
2023-02-02T00:27:10.875Z,100431.84
2023-02-02T00:30:13.001Z,100429.97
2023-02-02T00:33:14.493Z,100439.81
2023-02-02T00:36:17.189Z,100427.25
2023-02-02T00:39:26.081Z,100429.81
2023-02-02T00:42:27.639Z,100428.97
2023-02-02T00:45:29.455Z,100423.38
2023-02-02T00:48:30.984Z,100422.41
2023-02-02T00:51:32.504Z,100423.25
2023-02-02T00:54:34.097Z,100425.97
2023-02-02T00:57:35.655Z,100426.81
2023-02-02T01:00:37.746Z,100426.81
2023-02-02T01:03:39.228Z,100433.25
2023-02-02T01:06:40.856Z,100435.94
2023-02-02T01:09:43.092Z,100436.94
2023-02-02T01:12:45.069Z,100433.56
2023-02-02T01:15:47.230Z,100445.38
2023-02-02T01:18:49.463Z,100444.53
2023-02-02T01:21:51.141Z,100461.94
2023-02-02T01:24:54.916Z,100460.41
2023-02-02T01:27:57.309Z,100471.53
2023-02-02T01:30:59.388Z,100456.28
2023-02-02T01:34:00.917Z,100461.03
2023-02-02T01:37:04.945Z,100465.72
2023-02-02T01:40:07.438Z,100467.72
2023-02-02T01:43:23.509Z,100466.19
2023-02-02T01:46:30.709Z,100465.47
2023-02-02T01:49:33.226Z,100472.88
2023-02-02T01:52:35.659Z,100479.31
2023-02-02T01:55:39.541Z,100476.75
2023-02-02T01:58:42.807Z,100490.28
2023-02-02T02:01:46.390Z,100477.91
2023-02-02T02:04:50.343Z,100486.16
2023-02-02T02:07:57.548Z,100470.91
2023-02-02T02:10:59.410Z,100487.31
2023-02-02T02:14:22.991Z,100491.19
2023-02-02T02:17:30.455Z,100483.75
2023-02-02T02:21:32.718Z,100496.28
2023-02-02T02:25:00.244Z,100486.44
2023-02-02T02:28:17.624Z,100488.31
2023-02-02T02:31:55.971Z,100478.31
2023-02-02T02:35:04.140Z,100498.16
2023-02-02T02:38:27.105Z,100498.16
2023-02-02T02:41:34.694Z,100504.56
2023-02-02T02:44:36.539Z,100508.41
2023-02-02T02:47:39.287Z,100504.00
2023-02-02T02:50:41.038Z,100506.84
2023-02-02T02:53:43.126Z,100516.97
2023-02-02T02:56:52.891Z,100519.84
2023-02-02T03:00:25.428Z,100510.72
2023-02-02T03:03:37.170Z,100524.41
2023-02-02T03:06:42.516Z,100519.16
2023-02-02T03:09:46.479Z,100539.97
2023-02-02T03:12:51.277Z,100532.81
2023-02-02T03:15:53.444Z,100540.94
2023-02-02T03:18:56.497Z,100537.38
2023-02-02T03:21:57.974Z,100526.72
2023-02-02T03:24:59.481Z,100531.25
2023-02-02T03:28:01.297Z,100538.69
2023-02-02T03:31:03.139Z,100551.34
2023-02-02T03:34:04.743Z,100538.00
2023-02-02T03:37:06.215Z,100537.16
2023-02-02T03:40:08.519Z,100554.38
2023-02-02T03:43:10.487Z,100553.66
2023-02-02T03:46:12.017Z,100549.38
2023-02-02T03:49:13.525Z,100569.22
2023-02-02T03:52:14.988Z,100570.19
2023-02-02T03:55:16.672Z,100569.03
2023-02-02T03:58:18.219Z,100568.06
2023-02-02T04:01:28.352Z,100574.16
2023-02-02T04:04:29.852Z,100571.44
2023-02-02T04:07:31.317Z,100584.72
2023-02-02T04:10:32.790Z,100581.00
2023-02-02T04:13:34.303Z,100583.56
2023-02-02T04:16:37.611Z,100582.44
2023-02-02T04:19:39.128Z,100589.53
2023-02-02T04:22:40.648Z,100597.53
2023-02-02T04:25:49.486Z,100597.22
2023-02-02T04:28:51.804Z,100608.75
2023-02-02T04:31:53.410Z,100608.59
2023-02-02T04:34:54.889Z,100610.16
2023-02-02T04:37:56.602Z,100611.72
2023-02-02T04:40:58.074Z,100606.03
2023-02-02T04:43:59.541Z,100603.19
2023-02-02T04:47:01.072Z,100622.00
2023-02-02T04:50:02.683Z,100621.16
2023-02-02T04:53:04.965Z,100611.16
2023-02-02T04:56:08.546Z,100621.00
2023-02-02T04:59:10.056Z,100615.56
2023-02-02T05:02:11.594Z,100616.41
2023-02-02T05:05:14.389Z,100624.41
2023-02-02T05:08:15.848Z,100620.84
2023-02-02T05:11:22.870Z,100617.28
2023-02-02T05:14:24.340Z,100628.13
2023-02-02T05:17:25.781Z,100628.41
2023-02-02T05:20:27.260Z,100628.41
2023-02-02T05:23:29.473Z,100624.13
2023-02-02T05:26:31.029Z,100635.94
2023-02-02T05:29:32.573Z,100640.50
2023-02-02T05:32:34.057Z,100628.13
2023-02-02T05:35:35.575Z,100636.50
2023-02-02T05:38:37.149Z,100632.13
2023-02-02T05:41:38.773Z,100633.25
2023-02-02T05:44:40.236Z,100631.69
2023-02-02T05:47:41.751Z,100631.00
2023-02-02T05:50:46.794Z,100639.09
2023-02-02T05:53:48.428Z,100643.69
2023-02-02T05:56:52.184Z,100630.13
2023-02-02T05:59:54.406Z,100647.09
2023-02-02T06:02:55.935Z,100648.78
2023-02-02T06:05:57.468Z,100641.38
2023-02-02T06:08:59.068Z,100651.91
2023-02-02T06:12:00.539Z,100649.22
2023-02-02T06:15:02.056Z,100661.59
2023-02-02T06:18:06.050Z,100660.63
2023-02-02T06:21:07.637Z,100660.31
2023-02-02T06:24:09.264Z,100671.00
2023-02-02T06:27:10.802Z,100670.03
2023-02-02T06:30:13.504Z,100666.47
2023-02-02T06:33:15.107Z,100681.59
2023-02-02T06:36:16.657Z,100679.72
2023-02-02T06:39:18.239Z,100693.97
2023-02-02T06:42:21.915Z,100695.84
2023-02-02T06:45:24.686Z,100702.09
2023-02-02T06:48:27.327Z,100712.09
2023-02-02T06:51:28.793Z,100697.84
2023-02-02T06:54:30.341Z,100699.81
2023-02-02T06:57:31.810Z,100708.94
2023-02-02T07:00:36.260Z,100696.38
2023-02-02T07:03:38.673Z,100705.63
2023-02-02T07:06:40.244Z,100696.81
2023-02-02T07:09:41.839Z,100709.50
2023-02-02T07:12:43.321Z,100708.06
2023-02-02T07:15:44.874Z,100715.34
2023-02-02T07:18:48.235Z,100709.19
2023-02-02T07:21:49.773Z,100716.63
2023-02-02T07:24:51.248Z,100718.47
2023-02-02T07:27:54.093Z,100727.59
2023-02-02T07:30:55.754Z,100728.75
2023-02-02T07:33:57.259Z,100727.06
2023-02-02T07:36:58.867Z,100742.56
2023-02-02T07:40:00.338Z,100739.16
2023-02-02T07:43:02.456Z,100737.59
2023-02-02T07:46:08.191Z,100747.41
2023-02-02T07:49:16.205Z,100756.66
2023-02-02T07:52:17.674Z,100758.81
2023-02-02T07:55:19.558Z,100750.69
2023-02-02T07:58:21.069Z,100751.84
2023-02-02T08:01:26.008Z,100759.09
2023-02-02T08:04:27.661Z,100761.09
2023-02-02T08:07:29.237Z,100771.19
2023-02-02T08:10:30.729Z,100774.06
2023-02-02T08:13:32.275Z,100779.59
2023-02-02T08:16:34.562Z,100777.91
2023-02-02T08:19:36.149Z,100784.47
2023-02-02T08:22:37.700Z,100795.41
2023-02-02T08:25:40.023Z,100806.34
2023-02-02T08:28:43.500Z,100804.66
2023-02-02T08:31:45.477Z,100810.19
2023-02-02T08:34:49.165Z,100810.38
2023-02-02T08:37:50.721Z,100810.50
2023-02-02T08:40:52.544Z,100814.03
2023-02-02T08:43:54.093Z,100824.88
2023-02-02T08:46:56.242Z,100825.03
2023-02-02T08:49:57.773Z,100824.19
2023-02-02T08:52:59.282Z,100830.44
2023-02-02T08:56:07.672Z,100835.00
2023-02-02T08:59:09.568Z,100833.25
2023-02-02T09:02:13.781Z,100841.25
2023-02-02T09:05:15.484Z,100848.25
2023-02-02T09:08:17.082Z,100847.09
2023-02-02T09:11:19.943Z,100857.66
2023-02-02T09:14:21.447Z,100851.09
2023-02-02T09:17:24.099Z,100857.97
2023-02-02T09:20:25.744Z,100857.69
2023-02-02T09:23:30.484Z,100860.81
2023-02-02T09:26:32.149Z,100868.78
2023-02-02T09:29:33.800Z,100869.38
2023-02-02T09:32:35.370Z,100868.25
2023-02-02T09:35:36.864Z,100880.47
2023-02-02T09:38:39.338Z,100885.63
2023-02-02T09:41:40.972Z,100879.22
2023-02-02T09:45:08.377Z,100888.78
2023-02-02T09:48:25.208Z,100895.91
2023-02-02T09:51:33.601Z,100898.47
2023-02-02T09:54:42.279Z,100905.47
2023-02-02T09:57:51.037Z,100916.28
2023-02-02T10:01:34.958Z,100911.56
2023-02-02T10:04:40.236Z,100922.41
2023-02-02T10:07:45.854Z,100917.88
2023-02-02T10:10:50.271Z,100918.72
2023-02-02T10:13:56.047Z,100928.53
2023-02-02T10:17:03.394Z,100941.22
2023-02-02T10:20:43.637Z,100937.38
2023-02-02T10:23:46.005Z,100947.50
2023-02-02T10:26:54.143Z,100941.94
2023-02-02T10:30:00.950Z,100942.25
2023-02-02T10:33:06.174Z,100948.63
2023-02-02T10:36:26.660Z,100938.66
2023-02-02T10:39:34.303Z,100938.94
2023-02-02T10:43:23.960Z,100954.19
2023-02-02T10:46:37.114Z,100958.03
2023-02-02T10:49:40.703Z,100956.31
2023-02-02T10:52:47.841Z,100964.59
2023-02-02T10:55:52.422Z,100952.00
2023-02-02T10:59:04.512Z,100955.84
2023-02-02T11:02:20.443Z,100961.94
2023-02-02T11:05:43.442Z,100975.38
2023-02-02T11:08:47.436Z,100979.94
2023-02-02T11:11:54.507Z,100990.47
2023-02-02T11:15:01.654Z,100995.13
2023-02-02T11:18:29.850Z,100999.34
2023-02-02T11:21:33.156Z,100998.44
2023-02-02T11:24:49.549Z,100983.13
2023-02-02T11:27:51.571Z,100989.69
2023-02-02T11:30:54.406Z,100990.88
2023-02-02T11:34:17.016Z,100998.31
2023-02-02T11:37:23.499Z,100994.09
2023-02-02T11:40:46.092Z,100994.53
2023-02-02T11:43:54.081Z,100998.69
2023-02-02T11:46:57.330Z,100998.41
2023-02-02T11:50:01.455Z,101000.84
2023-02-02T11:53:03.804Z,100997.28
2023-02-02T11:56:25.445Z,100982.75
2023-02-02T11:59:26.971Z,100981.16
2023-02-02T12:02:31.156Z,100992.84
2023-02-02T12:05:36.667Z,100993.28
2023-02-02T12:08:38.229Z,101000.91
2023-02-02T12:12:28.115Z,101001.50
2023-02-02T12:15:50.854Z,101026.16
2023-02-02T12:19:16.949Z,101010.22
2023-02-02T12:22:36.820Z,101012.09
2023-02-02T12:26:02.787Z,101010.44
2023-02-02T12:29:19.467Z,101002.78
2023-02-02T12:32:53.293Z,101011.22
2023-02-02T12:35:57.472Z,101009.84
2023-02-02T12:39:25.192Z,101013.00
2023-02-02T12:42:48.495Z,101023.88
2023-02-02T12:46:10.785Z,101015.22
2023-02-02T12:49:41.091Z,101008.69
2023-02-02T12:53:04.484Z,101008.56
2023-02-02T12:56:27.366Z,101019.00
2023-02-02T12:59:42.766Z,101023.97
2023-02-02T13:03:05.674Z,101022.72
2023-02-02T13:06:39.994Z,101017.88
2023-02-02T13:10:00.215Z,101011.34
2023-02-02T13:13:08.864Z,101003.69
2023-02-02T13:16:14.195Z,101012.69
2023-02-02T13:19:28.115Z,101015.94
2023-02-02T13:22:36.143Z,101025.66
2023-02-02T13:25:46.600Z,101023.78
2023-02-02T13:29:00.373Z,101020.38
2023-02-02T13:32:17.314Z,101022.81
2023-02-02T13:35:24.284Z,101017.41
2023-02-02T13:38:31.493Z,101023.69
2023-02-02T13:41:33.135Z,101027.22
2023-02-02T13:44:44.790Z,101023.53
2023-02-02T13:47:53.523Z,101029.94
2023-02-02T13:51:13.509Z,101037.22
2023-02-02T13:54:20.946Z,101043.34
2023-02-02T13:57:56.902Z,101044.03
2023-02-02T14:01:06.598Z,101047.75
2023-02-02T14:04:21.667Z,101052.16
2023-02-02T14:07:40.804Z,101058.47
2023-02-02T14:10:56.376Z,101055.75
2023-02-02T14:14:38.834Z,101062.88
2023-02-02T14:17:40.238Z,101072.00
2023-02-02T14:20:48.189Z,101065.47
2023-02-02T14:23:51.128Z,101068.28
2023-02-02T14:26:59.686Z,101066.44
2023-02-02T14:30:01.399Z,101077.41
2023-02-02T14:33:27.401Z,101076.28
2023-02-02T14:36:30.208Z,101080.81
2023-02-02T14:39:32.591Z,101085.38
2023-02-02T14:43:35.303Z,101089.66
2023-02-02T14:46:41.116Z,101088.81
2023-02-02T14:49:42.627Z,101080.69
2023-02-02T14:52:44.481Z,101088.81
2023-02-02T14:56:08.955Z,101088.53
2023-02-02T14:59:39.173Z,101095.53
2023-02-02T15:02:41.913Z,101101.81
2023-02-02T15:05:46.063Z,101108.09
2023-02-02T15:09:19.835Z,101108.69
2023-02-02T15:12:29.419Z,101124.06
2023-02-02T15:15:36.054Z,101128.63
2023-02-02T15:18:44.366Z,101128.47
2023-02-02T15:21:49.151Z,101122.22
2023-02-02T15:24:52.935Z,101130.34
2023-02-02T15:28:30.037Z,101135.63
2023-02-02T15:31:45.414Z,101142.75
2023-02-02T15:34:50.813Z,101135.47
2023-02-02T15:38:00.465Z,101142.75
2023-02-02T15:41:14.491Z,101141.06
2023-02-02T15:44:28.232Z,101144.63
2023-02-02T15:47:41.296Z,101147.16
2023-02-02T15:50:48.380Z,101147.91
2023-02-02T15:53:51.830Z,101148.63
2023-02-02T15:56:55.361Z,101147.53
2023-02-02T15:59:57.745Z,101158.09
2023-02-02T16:03:07.815Z,101163.97
2023-02-02T16:06:09.928Z,101171.69
2023-02-02T16:09:23.913Z,101182.25
2023-02-02T16:12:26.050Z,101183.81
2023-02-02T16:15:30.738Z,101188.84
2023-02-02T16:18:32.990Z,101189.56
2023-02-02T16:21:38.479Z,101196.44
2023-02-02T16:24:44.078Z,101211.56
2023-02-02T16:27:48.466Z,101208.59
2023-02-02T16:30:53.695Z,101214.84
2023-02-02T16:33:56.798Z,101217.16
2023-02-02T16:37:13.442Z,101221.31
2023-02-02T16:40:27.111Z,101225.59
2023-02-02T16:43:29.736Z,101223.31
2023-02-02T16:46:49.827Z,101230.78
2023-02-02T16:50:09.980Z,101232.56
2023-02-02T16:53:22.243Z,101228.09
2023-02-02T16:56:32.853Z,101223.06
2023-02-02T16:59:37.779Z,101223.81
2023-02-02T17:02:44.848Z,101235.09
2023-02-02T17:05:53.503Z,101230.16
2023-02-02T17:08:54.970Z,101227.06
2023-02-02T17:11:59.903Z,101221.28
2023-02-02T17:15:23.908Z,101227.00
2023-02-02T17:18:26.178Z,101225.88
2023-02-02T17:21:27.778Z,101236.31
2023-02-02T17:24:29.570Z,101232.47
2023-02-02T17:27:34.125Z,101232.06
2023-02-02T17:30:36.080Z,101240.94
2023-02-02T17:33:38.070Z,101245.91
2023-02-02T17:36:39.564Z,101236.81
2023-02-02T17:39:41.051Z,101241.22
2023-02-02T17:42:45.081Z,101228.41
2023-02-02T17:45:47.274Z,101227.41
2023-02-02T17:48:48.777Z,101233.56
2023-02-02T17:51:50.660Z,101232.28
2023-02-02T17:54:52.232Z,101229.44
2023-02-02T17:57:54.036Z,101235.59
2023-02-02T18:00:58.844Z,101245.16
2023-02-02T18:04:00.459Z,101250.31
2023-02-02T18:07:02.358Z,101241.16
2023-02-02T18:10:06.216Z,101243.75
2023-02-02T18:13:08.032Z,101250.88
2023-02-02T18:16:11.005Z,101245.34
2023-02-02T18:19:12.599Z,101247.78
2023-02-02T18:22:14.083Z,101238.38
2023-02-02T18:25:15.637Z,101233.69
2023-02-02T18:28:17.937Z,101229.84
2023-02-02T18:31:22.985Z,101224.13
2023-02-02T18:34:24.855Z,101218.56
2023-02-02T18:37:26.406Z,101212.16
2023-02-02T18:40:27.875Z,101214.72
2023-02-02T18:43:29.802Z,101215.59
2023-02-02T18:46:33.784Z,101214.59
2023-02-02T18:49:35.283Z,101214.47
2023-02-02T18:52:36.774Z,101214.19
2023-02-02T18:55:38.276Z,101216.47
2023-02-02T18:58:40.224Z,101217.16
2023-02-02T19:01:42.046Z,101217.91
2023-02-02T19:05:04.271Z,101215.78
2023-02-02T19:08:05.942Z,101203.06
2023-02-02T19:11:15.274Z,101200.19
2023-02-02T19:14:19.794Z,101197.66
2023-02-02T19:17:24.420Z,101186.91
2023-02-02T19:20:30.459Z,101181.50
2023-02-02T19:23:33.080Z,101187.09
2023-02-02T19:26:38.155Z,101185.94
2023-02-02T19:29:39.651Z,101179.50
2023-02-02T19:32:41.901Z,101177.50
2023-02-02T19:35:45.586Z,101163.66
2023-02-02T19:38:48.659Z,101164.38
2023-02-02T19:41:54.020Z,101166.94
2023-02-02T19:44:56.550Z,101169.66
2023-02-02T19:48:01.256Z,101169.66
2023-02-02T19:51:25.585Z,101168.81
2023-02-02T19:54:42.169Z,101167.94
2023-02-02T19:57:44.435Z,101160.66
2023-02-02T20:00:47.771Z,101154.00
2023-02-02T20:03:50.926Z,101143.16
2023-02-02T20:06:59.472Z,101147.44
2023-02-02T20:10:33.297Z,101138.16
2023-02-02T20:13:48.368Z,101137.13
2023-02-02T20:16:56.741Z,101132.44
2023-02-02T20:19:59.845Z,101134.13
2023-02-02T20:23:02.127Z,101133.28
2023-02-02T20:26:15.495Z,101131.41
2023-02-02T20:29:27.833Z,101123.28
2023-02-02T20:32:38.480Z,101108.84
2023-02-02T20:35:42.695Z,101115.13
2023-02-02T20:38:44.950Z,101113.31
2023-02-02T20:41:46.434Z,101107.88
2023-02-02T20:44:48.357Z,101112.16
2023-02-02T20:47:50.661Z,101110.13
2023-02-02T20:50:52.212Z,101104.72
2023-02-02T20:53:56.497Z,101101.00
2023-02-02T20:56:58.267Z,101105.59
2023-02-02T20:59:59.996Z,101093.84
2023-02-02T21:03:01.478Z,101099.16
2023-02-02T21:06:02.988Z,101080.28
2023-02-02T21:09:06.094Z,101082.88
2023-02-02T21:12:07.613Z,101076.41
2023-02-02T21:15:09.758Z,101074.59
2023-02-02T21:18:11.307Z,101080.16
2023-02-02T21:21:14.184Z,101074.84
2023-02-02T21:24:15.777Z,101071.47
2023-02-02T21:27:17.640Z,101060.59
2023-02-02T21:30:19.350Z,101059.72
2023-02-02T21:33:20.981Z,101063.31
2023-02-02T21:36:28.588Z,101069.72
2023-02-02T21:39:35.317Z,101069.88
2023-02-02T21:42:37.310Z,101070.88
2023-02-02T21:45:39.076Z,101078.03
2023-02-02T21:48:41.958Z,101080.75
2023-02-02T21:51:43.483Z,101077.16
2023-02-02T21:54:45.823Z,101075.31
2023-02-02T21:57:47.304Z,101080.88
2023-02-02T22:00:49.715Z,101079.88
2023-02-02T22:03:51.402Z,101081.00
2023-02-02T22:06:56.479Z,101074.59
2023-02-02T22:09:57.993Z,101071.16
2023-02-02T22:12:59.521Z,101068.59
2023-02-02T22:16:01.910Z,101063.31
2023-02-02T22:19:25.356Z,101070.63
2023-02-02T22:22:32.553Z,101070.88
2023-02-02T22:25:36.536Z,101065.72
2023-02-02T22:28:42.680Z,101071.44
2023-02-02T22:31:44.267Z,101062.75
2023-02-02T22:34:45.794Z,101048.59
2023-02-02T22:37:47.337Z,101045.31
2023-02-02T22:40:49.901Z,101050.03
2023-02-02T22:43:51.339Z,101040.31
2023-02-02T22:46:52.827Z,101036.88
2023-02-02T22:49:54.362Z,101030.75
2023-02-02T22:52:55.955Z,101027.34
2023-02-02T22:55:57.473Z,101012.34
2023-02-02T22:59:01.294Z,101011.63
2023-02-02T23:02:02.818Z,100991.09
2023-02-02T23:05:05.272Z,100992.22
2023-02-02T23:08:06.809Z,100993.53
2023-02-02T23:11:08.256Z,101000.78
2023-02-02T23:14:09.884Z,101005.50
2023-02-02T23:17:11.320Z,101012.22
2023-02-02T23:20:14.384Z,101015.03
2023-02-02T23:23:15.945Z,101008.94
2023-02-02T23:26:17.436Z,101005.63
2023-02-02T23:29:18.894Z,100993.22
2023-02-02T23:32:20.425Z,100992.50
2023-02-02T23:35:21.905Z,100997.06
2023-02-02T23:38:23.408Z,100986.38
2023-02-02T23:41:24.843Z,100968.56
2023-02-02T23:44:26.538Z,100965.13
2023-02-02T23:47:28.139Z,100943.59
2023-02-02T23:50:29.629Z,100958.16
2023-02-02T23:53:31.199Z,100958.28
2023-02-02T23:56:33.017Z,100954.72
2023-02-02T23:59:34.463Z,100973.13
